Time;durP1;ratioP1;P1;durP2;ratioP2;P2;SDS_P1;SDS_P2;PMS_P1;PMS_P2;Temp;Humidity;BMP_temperature;BMP_pressure;BME280_temperature;BME280_humidity;BME280_pressure;Samples;Min_cycle;Max_cycle;Signal;HPM_P1;HPM_P2
2021/08/13 00:04:27;;;;;;;26.50;12.30;;;;;;;18.88;64.53;100777.19;10194409;28;20300;-74
2021/08/13 00:09:29;;;;;;;14.57;11.20;;;;;;;18.73;64.99;100775.09;10191925;28;20240;-73
2021/08/13 00:14:34;;;;;;;17.75;11.82;;;;;;;18.72;65.52;100772.53;10194419;28;20308;-71
2021/08/13 00:19:37;;;;;;;17.23;12.35;;;;;;;18.64;66.05;100784.25;10192941;28;20304;-73
2021/08/13 00:24:40;;;;;;;20.00;11.70;;;;;;;18.45;66.35;100792.72;10191623;28;20231;-74
2021/08/13 00:29:44;;;;;;;17.33;12.30;;;;;;;18.30;67.11;100797.97;10194878;28;20291;-73
2021/08/13 00:34:48;;;;;;;17.38;12.68;;;;;;;18.29;67.52;100798.94;10192896;28;20295;-74
2021/08/13 00:39:51;;;;;;;18.63;12.65;;;;;;;18.32;67.52;100787.75;10190639;28;20249;-73
2021/08/13 00:44:56;;;;;;;19.27;12.60;;;;;;;18.34;67.86;100791.16;10191127;28;20245;-73
2021/08/13 00:49:59;;;;;;;19.27;12.98;;;;;;;18.35;67.80;100798.31;10189402;28;20233;-73
2021/08/13 00:55:09;;;;;;;14.80;12.02;;;;;;;18.40;67.62;100795.94;10189300;28;20299;-73
2021/08/13 01:00:32;;;;;;;19.65;13.13;;;;;;;18.37;67.79;100809.84;10189698;28;20240;-73
2021/08/13 01:05:35;;;;;;;22.38;12.88;;;;;;;18.38;67.68;100799.84;10187653;28;20903;-74
2021/08/13 01:10:46;;;;;;;20.98;13.02;;;;;;;18.23;67.83;100805.06;10190756;28;20233;-73
2021/08/13 01:15:54;;;;;;;20.83;13.05;;;;;;;18.06;68.28;100804.16;10189363;28;20237;-73
2021/08/13 01:21:19;;;;;;;25.80;14.45;;;;;;;18.09;69.06;100795.66;10189452;28;20343;-74
2021/08/13 01:26:32;;;;;;;18.55;13.95;;;;;;;18.00;69.38;100802.94;10190256;28;21120;-74
2021/08/13 01:31:48;;;;;;;20.83;14.52;;;;;;;17.97;69.73;100791.50;10188619;28;20249;-74
2021/08/13 01:36:58;;;;;;;20.33;14.73;;;;;;;17.90;69.88;100791.28;10188942;28;22084;-74
2021/08/13 01:42:05;;;;;;;22.08;15.25;;;;;;;17.86;69.71;100789.94;10187494;28;20236;-74
2021/08/13 01:47:08;;;;;;;19.45;13.73;;;;;;;17.76;69.97;100802.78;10189181;28;20237;-74
2021/08/13 01:52:13;;;;;;;20.02;13.75;;;;;;;17.55;70.37;100800.44;10188724;28;20272;-74
2021/08/13 01:57:16;;;;;;;17.23;13.73;;;;;;;17.45;70.88;100804.13;10187636;28;20233;-75
2021/08/13 02:02:21;;;;;;;17.95;12.88;;;;;;;17.41;70.56;100807.28;10189977;28;20292;-73
2021/08/13 02:07:26;;;;;;;16.20;12.88;;;;;;;17.37;70.69;100806.78;10188683;28;20257;-73
2021/08/13 02:12:29;;;;;;;19.88;13.65;;;;;;;17.41;70.84;100807.28;10189259;28;20291;-74
2021/08/13 02:17:36;;;;;;;17.90;13.43;;;;;;;17.33;70.79;100810.78;10191607;28;20264;-74
2021/08/13 02:22:41;;;;;;;17.98;13.90;;;;;;;17.27;70.97;100803.28;10187135;28;20648;-72
2021/08/13 02:27:46;;;;;;;18.73;13.68;;;;;;;17.22;71.19;100802.91;10188189;28;20550;-74
2021/08/13 02:32:52;;;;;;;18.13;14.57;;;;;;;17.16;70.94;100796.25;10187811;28;20245;-73
2021/08/13 02:38:08;;;;;;;17.17;13.35;;;;;;;17.09;71.02;100797.03;10188817;28;20371;-73
2021/08/13 02:43:20;;;;;;;18.55;13.15;;;;;;;17.10;71.08;100780.56;10189538;28;20653;-73
2021/08/13 02:48:25;;;;;;;18.75;13.88;;;;;;;17.14;70.85;100790.16;10189546;28;20612;-73
2021/08/13 02:53:30;;;;;;;19.10;13.70;;;;;;;17.22;70.38;100792.94;10187427;28;20788;-72
2021/08/13 02:58:39;;;;;;;18.10;13.48;;;;;;;17.22;70.21;100809.22;10187629;28;20360;-74
2021/08/13 03:03:43;;;;;;;18.15;13.20;;;;;;;17.18;70.23;100798.81;10192715;28;20251;-74
2021/08/13 03:08:51;;;;;;;19.20;14.70;;;;;;;17.12;70.52;100797.56;10185419;28;20251;-75
2021/08/13 03:13:55;;;;;;;21.08;14.63;;;;;;;17.08;70.49;100804.28;10186261;28;21587;-74
2021/08/13 03:19:04;;;;;;;18.92;13.18;;;;;;;17.05;70.68;100791.03;10190731;28;20232;-74
2021/08/13 03:24:09;;;;;;;20.00;14.95;;;;;;;16.97;70.67;100791.81;10194948;28;20343;-74
2021/08/13 03:29:13;;;;;;;18.63;12.82;;;;;;;17.01;70.81;100797.81;10191618;28;21398;-74
2021/08/13 03:34:17;;;;;;;19.50;14.05;;;;;;;16.97;70.56;100802.66;10192623;28;20525;-73
2021/08/13 03:39:23;;;;;;;19.23;13.10;;;;;;;16.93;70.84;100803.16;10193141;28;21415;-74
2021/08/13 03:44:26;;;;;;;15.43;13.18;;;;;;;16.86;70.90;100793.94;10194215;28;20241;-74
2021/08/13 03:49:30;;;;;;;17.55;12.77;;;;;;;16.88;70.96;100800.06;10192783;28;20278;-72
2021/08/13 03:54:34;;;;;;;20.02;14.65;;;;;;;16.84;71.05;100795.94;10193584;28;20274;-74
2021/08/13 03:59:37;;;;;;;21.52;14.02;;;;;;;16.72;71.27;100804.31;10191305;28;20854;-73
2021/08/13 04:04:40;;;;;;;18.73;13.52;;;;;;;16.70;71.34;100802.75;10191992;28;20245;-74
2021/08/13 04:09:44;;;;;;;20.08;13.40;;;;;;;16.65;71.22;100786.97;10191741;28;20232;-74
2021/08/13 04:14:52;;;;;;;15.57;12.38;;;;;;;16.68;71.17;100802.06;10192582;28;20233;-74
2021/08/13 04:19:55;;;;;;;18.77;13.75;;;;;;;16.70;71.14;100792.78;10191856;28;20736;-74
2021/08/13 04:25:00;;;;;;;20.27;14.68;;;;;;;16.72;71.10;100789.91;10193044;28;20248;-74
2021/08/13 04:30:04;;;;;;;19.60;13.95;;;;;;;16.68;70.82;100793.94;10191001;28;20308;-74
2021/08/13 04:35:09;;;;;;;19.70;13.38;;;;;;;16.72;70.83;100795.31;10191290;28;20299;-74
2021/08/13 04:40:13;;;;;;;23.17;13.57;;;;;;;16.75;70.81;100778.72;10193151;28;20267;-74
2021/08/13 04:45:23;;;;;;;20.33;14.73;;;;;;;16.74;70.71;100785.19;10191040;28;20244;-74
2021/08/13 04:50:27;;;;;;;19.05;13.75;;;;;;;16.77;70.95;100790.28;10191484;28;20240;-73
2021/08/13 04:55:44;;;;;;;19.52;13.63;;;;;;;16.84;70.70;100772.41;10190144;28;20624;-73
2021/08/13 05:00:48;;;;;;;24.10;15.88;;;;;;;16.94;70.92;100780.44;10191811;28;20368;-73
2021/08/13 05:05:53;;;;;;;19.90;14.77;;;;;;;17.03;70.49;100785.78;10190484;28;21686;-74
2021/08/13 05:10:57;;;;;;;23.08;14.70;;;;;;;17.16;70.34;100792.69;10192042;28;20237;-73
2021/08/13 05:16:00;;;;;;;29.55;15.30;;;;;;;17.27;70.27;100791.59;10192811;28;20734;-73
2021/08/13 05:21:05;;;;;;;24.48;15.63;;;;;;;17.15;70.12;100794.56;10192780;28;20300;-73
2021/08/13 05:26:09;;;;;;;26.10;14.55;;;;;;;17.07;70.59;100801.75;10194411;28;20237;-73
2021/08/13 05:31:12;;;;;;;25.85;18.50;;;;;;;17.14;70.82;100805.56;10198420;28;21174;-73
2021/08/13 05:36:17;;;;;;;21.25;14.57;;;;;;;17.37;70.26;100795.06;10199705;28;20256;-73
2021/08/13 05:41:21;;;;;;;24.02;15.93;;;;;;;17.57;69.74;100795.69;10188341;28;20320;-73
2021/08/13 05:46:24;;;;;;;26.02;15.50;;;;;;;17.76;69.30;100794.63;10189016;28;20237;-73
2021/08/13 05:51:28;;;;;;;23.98;15.60;;;;;;;17.83;68.84;100784.81;10189182;28;21353;-74
2021/08/13 05:56:33;;;;;;;22.35;16.33;;;;;;;17.87;68.97;100784.31;10187846;28;20598;-74
2021/08/13 06:01:37;;;;;;;24.30;16.23;;;;;;;18.05;68.81;100795.13;10191827;28;20229;-74
2021/08/13 06:06:43;;;;;;;23.13;15.70;;;;;;;18.29;68.55;100785.34;10184876;28;20241;-75
2021/08/13 06:11:47;;;;;;;22.08;15.45;;;;;;;18.53;67.16;100798.19;10182720;28;20264;-74
2021/08/13 06:16:50;;;;;;;20.45;15.57;;;;;;;18.82;66.88;100796.91;10185406;28;20243;-75
2021/08/13 06:21:53;;;;;;;23.63;16.35;;;;;;;19.01;65.95;100789.28;10184525;28;20328;-74
2021/08/13 06:26:58;;;;;;;23.80;15.23;;;;;;;19.02;65.21;100785.50;10200058;28;20248;-74
2021/08/13 06:32:04;;;;;;;22.70;14.73;;;;;;;19.39;64.22;100792.31;10184561;28;20809;-74
2021/08/13 06:37:07;;;;;;;21.75;13.68;;;;;;;19.68;63.22;100797.22;10183101;28;20405;-74
2021/08/13 06:42:14;;;;;;;23.05;12.68;;;;;;;19.98;62.44;100792.00;10184842;28;20268;-72
2021/08/13 06:47:26;;;;;;;20.65;13.50;;;;;;;20.28;62.01;100806.72;10185643;28;20247;-74
2021/08/13 06:52:30;;;;;;;15.27;9.43;;;;;;;20.44;60.12;100803.09;10187294;28;20872;-73
2021/08/13 06:57:34;;;;;;;17.52;12.43;;;;;;;20.71;59.56;100806.34;10195258;28;21402;-73
2021/08/13 07:02:38;;;;;;;14.90;9.85;;;;;;;21.02;59.42;100796.19;10192221;28;20291;-73
2021/08/13 07:07:42;;;;;;;14.52;10.90;;;;;;;21.48;58.15;100795.31;10153690;28;1136504;-74
2021/08/13 07:12:47;;;;;;;16.42;10.32;;;;;;;22.06;57.58;100798.28;10195931;28;20287;-73
2021/08/13 07:17:50;;;;;;;14.48;10.82;;;;;;;22.69;56.73;100804.97;10209778;28;20243;-74
2021/08/13 07:22:54;;;;;;;16.33;8.55;;;;;;;23.30;54.71;100800.94;10210045;28;20240;-74
2021/08/13 07:27:58;;;;;;;13.80;8.63;;;;;;;23.53;53.88;100808.91;10213222;28;20857;-74
2021/08/13 07:33:01;;;;;;;10.38;7.28;;;;;;;23.78;52.36;100809.31;10197006;28;20232;-74
2021/08/13 07:38:04;;;;;;;10.98;7.70;;;;;;;24.16;51.40;100814.38;10192583;28;20241;-74
2021/08/13 07:43:09;;;;;;;13.93;8.07;;;;;;;24.63;49.53;100808.06;10200869;28;20237;-74
2021/08/13 07:48:12;;;;;;;10.10;7.22;;;;;;;24.48;48.09;100804.63;10190558;28;20248;-74
2021/08/13 07:53:15;;;;;;;12.10;7.30;;;;;;;24.82;48.41;100800.06;10191610;28;20244;-74
2021/08/13 07:58:20;;;;;;;14.55;7.55;;;;;;;24.90;47.25;100799.88;10190188;28;20336;-74
2021/08/13 08:03:24;;;;;;;11.40;7.28;;;;;;;25.25;47.30;100795.06;10188808;28;20237;-74
2021/08/13 08:08:27;;;;;;;11.35;6.50;;;;;;;25.45;47.39;100794.22;10169006;28;20266;-73
2021/08/13 08:13:31;;;;;;;8.18;5.50;;;;;;;25.15;46.48;100789.13;10079330;28;20240;-73
2021/08/13 08:18:34;;;;;;;9.77;6.75;;;;;;;25.24;46.26;100781.56;10074679;28;20729;-72
2021/08/13 08:23:37;;;;;;;12.00;7.53;;;;;;;25.10;46.53;100791.69;10057810;28;20259;-72
2021/08/13 08:31:28;;;;;;;11.55;7.55;;;;;;;25.60;47.00;100794.84;8696103;32;20545;-72
2021/08/13 08:36:31;;;;;;;11.38;7.63;;;;;;;25.85;45.67;100792.28;8652492;33;21508;-73
2021/08/13 08:41:34;;;;;;;10.25;7.25;;;;;;;26.16;45.45;100799.78;8624872;33;20436;-73
2021/08/13 08:46:39;;;;;;;8.07;6.28;;;;;;;26.89;44.49;100798.63;8622914;33;20145;-71
2021/08/13 08:51:43;;;;;;;10.10;6.82;;;;;;;27.23;43.01;100797.28;8622786;33;20160;-72
2021/08/13 08:56:48;;;;;;;9.95;6.97;;;;;;;27.64;42.87;100804.16;8592846;33;20186;-72
2021/08/13 09:02:14;;;;;;;8.85;7.22;;;;;;;27.41;42.68;100798.47;8623610;33;20241;-72
2021/08/13 09:07:18;;;;;;;12.52;8.02;;;;;;;27.97;43.20;100794.72;8623452;33;20628;-72
2021/08/13 09:12:21;;;;;;;7.35;6.07;;;;;;;27.86;39.70;100800.97;8622920;33;20189;-72
2021/08/13 09:17:30;;;;;;;7.82;5.78;;;;;;;27.49;40.54;100795.41;8621003;33;20481;-74
2021/08/13 09:22:43;;;;;;;8.27;6.88;;;;;;;27.15;41.24;100794.81;8621120;33;20310;-73
2021/08/13 09:27:47;;;;;;;9.27;7.10;;;;;;;27.15;40.55;100805.84;8625830;33;20208;-73
2021/08/13 09:33:27;;;;;;;8.95;5.85;;;;;;;26.66;42.74;100810.19;8621962;33;20677;-73
2021/08/13 09:38:30;;;;;;;10.88;6.47;;;;;;;26.60;42.21;100811.06;8619069;33;20212;-73
2021/08/13 09:43:33;;;;;;;12.32;6.50;;;;;;;27.34;42.52;100810.38;8603385;33;20465;-73
2021/08/13 09:48:40;;;;;;;15.63;6.60;;;;;;;26.52;43.69;100814.91;8602781;33;20642;-73
2021/08/13 09:53:58;;;;;;;7.90;6.05;;;;;;;26.76;43.38;100815.22;8601468;33;21870;-73
2021/08/13 09:59:12;;;;;;;9.53;6.23;;;;;;;26.88;43.19;100819.00;8603414;33;20184;-73
2021/08/13 10:04:20;;;;;;;9.07;6.90;;;;;;;27.03;44.03;100826.94;8603120;33;20185;-73
2021/08/13 10:09:25;;;;;;;9.73;6.72;;;;;;;27.13;42.90;100825.38;8626055;33;20181;-73
2021/08/13 10:14:30;;;;;;;10.75;7.80;;;;;;;27.04;43.22;100823.97;8601402;33;20212;-73
2021/08/13 10:19:36;;;;;;;10.18;8.40;;;;;;;27.20;42.78;100819.78;8601748;33;20169;-72
2021/08/13 10:24:43;;;;;;;9.77;7.68;;;;;;;27.33;42.22;100799.56;8603418;33;20193;-73
2021/08/13 10:29:48;;;;;;;9.95;7.90;;;;;;;28.00;41.73;100799.78;8624341;33;20692;-73
2021/08/13 10:34:59;;;;;;;9.52;8.05;;;;;;;28.34;40.58;100803.81;8600941;33;20341;-73
2021/08/13 10:40:04;;;;;;;11.60;8.38;;;;;;;28.12;41.67;100794.34;8602542;33;20200;-73
2021/08/13 10:45:10;;;;;;;11.60;8.02;;;;;;;27.73;42.04;100800.06;8602448;33;20192;-73
2021/08/13 10:50:18;;;;;;;10.98;8.30;;;;;;;28.30;42.15;100790.69;8600075;33;20308;-72
2021/08/13 10:55:42;;;;;;;10.52;7.80;;;;;;;28.02;42.43;100794.88;8600465;33;20280;-73
2021/08/13 11:01:08;;;;;;;11.20;8.45;;;;;;;28.61;41.66;100790.53;8600533;33;20164;-73
2021/08/13 11:06:45;;;;;;;17.40;8.90;;;;;;;28.42;41.60;100781.41;8592966;33;20172;-73
2021/08/13 11:12:12;;;;;;;12.55;8.63;;;;;;;27.69;43.37;100773.97;8599733;33;20303;-73
2021/08/13 11:17:39;;;;;;;10.48;8.32;;;;;;;27.91;42.69;100790.94;8598642;33;20150;-73
2021/08/13 11:22:45;;;;;;;11.45;9.02;;;;;;;28.30;42.53;100796.22;8599435;33;20268;-73
2021/08/13 11:28:18;;;;;;;11.10;8.25;;;;;;;28.32;42.14;100797.69;8607339;33;20191;-73
2021/08/13 11:33:40;;;;;;;10.35;8.02;;;;;;;28.02;43.54;100789.34;8599357;33;20267;-73
2021/08/13 11:39:00;;;;;;;11.02;8.60;;;;;;;28.11;42.58;100793.47;8598256;33;22003;-73
2021/08/13 11:44:04;;;;;;;11.48;8.60;;;;;;;27.88;43.22;100804.34;8598465;33;20208;-73
2021/08/13 11:49:15;;;;;;;14.40;8.95;;;;;;;28.18;42.37;100813.56;8598326;33;20197;-72
2021/08/13 11:54:27;;;;;;;12.65;8.98;;;;;;;27.85;42.41;100808.41;8598781;33;20235;-73
2021/08/13 11:59:35;;;;;;;11.05;8.10;;;;;;;27.34;43.21;100829.69;8597449;33;21098;-73
2021/08/13 12:04:39;;;;;;;13.73;9.55;;;;;;;27.85;42.15;100819.44;8596586;33;20192;-73
2021/08/13 12:09:45;;;;;;;9.70;8.18;;;;;;;28.36;41.50;100812.72;8597507;33;20235;-73
2021/08/13 12:14:55;;;;;;;11.82;7.72;;;;;;;28.42;41.64;100814.56;8635687;33;20219;-73
2021/08/13 12:20:03;;;;;;;10.68;8.30;;;;;;;29.80;39.07;100807.09;8657206;33;20752;-74
2021/08/13 12:25:12;;;;;;;11.15;8.38;;;;;;;27.59;43.35;100823.31;8655283;33;20688;-74
2021/08/13 12:30:20;;;;;;;13.05;8.73;;;;;;;28.98;40.88;100823.56;8655928;33;20219;-73
2021/08/13 12:35:25;;;;;;;15.70;10.13;;;;;;;27.27;42.85;100833.56;8655444;33;20180;-73
2021/08/13 12:40:30;;;;;;;15.55;10.30;;;;;;;27.73;42.30;100827.66;8657257;33;20452;-73
2021/08/13 12:45:33;;;;;;;11.05;9.50;;;;;;;27.39;43.93;100829.81;8657584;33;20180;-73
2021/08/13 12:50:37;;;;;;;15.18;9.80;;;;;;;27.78;42.61;100843.50;8656320;33;20694;-73
2021/08/13 12:55:48;;;;;;;14.50;10.43;;;;;;;27.27;43.43;100823.38;8654621;33;20428;-73
2021/08/13 13:00:54;;;;;;;13.13;9.18;;;;;;;26.65;44.45;100833.28;8680025;33;20323;-73
2021/08/13 13:06:07;;;;;;;13.88;10.40;;;;;;;26.65;44.75;100827.78;8656145;33;21383;-73
2021/08/13 13:11:26;;;;;;;14.50;9.68;;;;;;;27.67;43.03;100833.22;8626913;33;20566;-73
2021/08/13 13:17:06;;;;;;;13.50;9.13;;;;;;;27.73;42.54;100829.53;8598589;33;20212;-73
2021/08/13 13:22:21;;;;;;;14.43;11.00;;;;;;;26.39;44.64;100848.88;8647222;33;20652;-73
2021/08/13 13:27:26;;;;;;;14.43;10.35;;;;;;;26.45;45.43;100825.97;8661240;33;20168;-73
2021/08/13 13:32:34;;;;;;;14.35;10.48;;;;;;;26.02;45.72;100828.41;8604257;33;20185;-73
2021/08/13 13:37:54;;;;;;;12.13;10.30;;;;;;;26.36;45.52;100826.44;8602746;33;20204;-73
2021/08/13 13:43:03;;;;;;;13.25;10.18;;;;;;;26.32;45.50;100820.50;8603204;33;21226;-73
2021/08/13 13:48:07;;;;;;;6.68;5.95;;;;;;;25.41;44.88;100844.13;8604097;33;20228;-73
2021/08/13 13:53:10;;;;;;;7.15;6.05;;;;;;;25.53;44.58;100838.00;8602884;33;20185;-73
2021/08/13 13:58:14;;;;;;;8.63;7.03;;;;;;;25.81;44.21;100824.88;8604045;33;20590;-73
2021/08/13 14:03:18;;;;;;;8.57;7.32;;;;;;;26.07;44.45;100842.38;8604307;33;20177;-73
2021/08/13 14:08:22;;;;;;;7.15;5.75;;;;;;;25.58;44.13;100840.97;8604118;33;21554;-73
2021/08/13 14:13:30;;;;;;;6.28;5.43;;;;;;;25.79;44.31;100831.66;8602148;33;21631;-73
2021/08/13 14:18:36;;;;;;;7.25;5.43;;;;;;;26.10;43.99;100841.94;8602452;33;20196;-73
2021/08/13 14:23:39;;;;;;;8.05;4.45;;;;;;;25.80;42.10;100841.59;8658962;33;20195;-72
2021/08/13 14:28:43;;;;;;;4.68;3.15;;;;;;;25.81;41.05;100840.56;8644460;33;20451;-72
2021/08/13 14:33:47;;;;;;;4.30;2.50;;;;;;;25.89;40.64;100833.94;8655684;33;20184;-72
2021/08/13 14:38:50;;;;;;;5.50;3.30;;;;;;;27.13;38.80;100846.59;8656972;33;20281;-72
2021/08/13 14:43:54;;;;;;;3.22;2.63;;;;;;;26.03;40.84;100858.50;8685580;33;20196;-71
2021/08/13 14:48:57;;;;;;;3.58;2.40;;;;;;;26.27;40.20;100870.75;8683005;33;20199;-71
2021/08/13 14:54:01;;;;;;;2.97;2.40;;;;;;;25.23;42.71;100889.78;8661647;33;20184;-71
2021/08/13 14:59:06;;;;;;;4.47;2.53;;;;;;;24.95;43.52;100869.63;8659686;33;20180;-71
2021/08/13 15:04:10;;;;;;;3.63;2.92;;;;;;;25.80;42.62;100858.94;8658317;33;20490;-71
2021/08/13 15:09:13;;;;;;;4.13;2.65;;;;;;;26.08;42.08;100849.56;8601106;33;20227;-71
2021/08/13 15:14:19;;;;;;;2.92;2.55;;;;;;;25.49;43.16;100865.09;8635623;33;20320;-71
2021/08/13 15:19:25;;;;;;;3.42;2.40;;;;;;;25.33;43.04;100858.09;8658087;33;20900;-72
2021/08/13 15:24:28;;;;;;;2.47;1.92;;;;;;;24.62;44.28;100858.53;8620003;33;20189;-72
2021/08/13 15:29:33;;;;;;;3.80;2.00;;;;;;;24.52;44.54;100866.34;8598526;33;20204;-71
2021/08/13 15:34:36;;;;;;;3.60;2.13;;;;;;;25.09;43.96;100862.28;8653715;33;20181;-72
2021/08/13 15:39:39;;;;;;;4.00;2.33;;;;;;;25.11;44.18;100867.59;8659481;33;20246;-71
2021/08/13 15:44:43;;;;;;;3.70;2.03;;;;;;;25.16;44.09;100862.31;8659503;33;20350;-72
2021/08/13 15:49:46;;;;;;;2.50;1.95;;;;;;;24.36;45.02;100869.41;8658849;33;20695;-72
2021/08/13 15:54:49;;;;;;;3.38;2.28;;;;;;;24.49;44.95;100850.25;8657184;33;20134;-71
2021/08/13 15:59:54;;;;;;;3.65;2.00;;;;;;;24.41;45.65;100864.16;8658884;33;20160;-71
2021/08/13 16:04:57;;;;;;;2.95;2.03;;;;;;;24.47;45.53;100855.97;8660037;33;20237;-72
2021/08/13 16:10:00;;;;;;;3.75;2.22;;;;;;;23.99;46.81;100861.38;8659822;33;21405;-72
2021/08/13 16:15:07;;;;;;;3.13;2.08;;;;;;;23.63;47.76;100858.78;8660965;33;20212;-72
2021/08/13 16:20:11;;;;;;;3.60;2.72;;;;;;;23.29;49.27;100857.66;8660355;33;20179;-71
2021/08/13 16:25:14;;;;;;;4.05;2.70;;;;;;;23.78;48.80;100872.41;8659819;33;20211;-71
2021/08/13 16:30:22;;;;;;;5.18;2.92;;;;;;;23.72;48.99;100879.50;8661726;33;20241;-70
2021/08/13 16:35:25;;;;;;;7.10;3.28;;;;;;;23.23;49.06;100880.38;8659058;33;20635;-72
2021/08/13 16:40:28;;;;;;;8.93;3.50;;;;;;;23.06;48.30;100896.16;8660029;33;20237;-73
2021/08/13 16:45:33;;;;;;;6.82;3.55;;;;;;;22.59;48.92;100889.28;8659119;33;20184;-72
2021/08/13 16:50:37;;;;;;;5.43;4.00;;;;;;;22.09;49.71;100899.13;8639160;33;20196;-73
2021/08/13 16:55:40;;;;;;;6.15;3.60;;;;;;;22.96;48.26;100888.28;8640605;33;20180;-72
2021/08/13 17:00:46;;;;;;;5.93;4.07;;;;;;;23.03;47.77;100888.34;8663582;33;20183;-72
2021/08/13 17:05:50;;;;;;;8.98;3.65;;;;;;;22.71;47.66;100895.16;8662469;33;20238;-73
2021/08/13 17:10:53;;;;;;;6.70;3.80;;;;;;;22.88;46.51;100901.25;8664099;33;20309;-73
2021/08/13 17:16:02;;;;;;;5.78;3.60;;;;;;;22.41;47.04;100905.25;8662291;33;20188;-72
2021/08/13 17:21:05;;;;;;;6.85;4.00;;;;;;;22.04;46.73;100899.66;8662872;33;20596;-72
2021/08/13 17:26:08;;;;;;;10.20;4.65;;;;;;;21.71;46.49;100901.84;8661654;33;20188;-71
2021/08/13 17:31:12;;;;;;;6.72;4.07;;;;;;;21.69;46.67;100906.66;8662073;33;21372;-73
2021/08/13 17:36:16;;;;;;;10.15;3.83;;;;;;;21.32;46.49;100915.69;8661496;33;20176;-71
2021/08/13 17:41:19;;;;;;;6.57;3.80;;;;;;;21.64;46.32;100915.44;8662234;33;20435;-72
2021/08/13 17:46:23;;;;;;;9.85;4.45;;;;;;;21.15;46.49;100918.53;8661502;33;20584;-73
2021/08/13 17:51:26;;;;;;;6.60;3.92;;;;;;;20.96;46.94;100921.69;8662700;33;20335;-72
2021/08/13 17:56:29;;;;;;;6.88;3.88;;;;;;;20.68;47.00;100933.09;8659201;33;20191;-72
2021/08/13 18:01:34;;;;;;;6.00;3.60;;;;;;;20.75;47.28;100931.34;8661012;33;20215;-72
2021/08/13 18:06:37;;;;;;;12.98;4.18;;;;;;;20.60;47.27;100937.72;8660046;33;20184;-72
2021/08/13 18:11:40;;;;;;;5.20;3.17;;;;;;;21.00;46.98;100936.69;8660728;33;20157;-71
2021/08/13 18:16:45;;;;;;;5.85;3.60;;;;;;;20.76;46.91;100933.06;8659530;33;20693;-72
2021/08/13 18:21:48;;;;;;;6.22;3.85;;;;;;;20.67;47.19;100936.00;8660636;33;20180;-72
2021/08/13 18:26:51;;;;;;;6.82;3.22;;;;;;;20.70;47.20;100941.94;8660213;33;20420;-71
2021/08/13 18:31:55;;;;;;;6.22;3.38;;;;;;;20.48;47.02;100945.47;8661331;33;20326;-73
2021/08/13 18:36:58;;;;;;;9.43;3.25;;;;;;;20.24;47.51;100939.03;8659291;33;20180;-72
2021/08/13 18:42:01;;;;;;;24.65;4.22;;;;;;;20.13;47.44;100942.13;8660539;33;20121;-72
2021/08/13 18:47:06;;;;;;;7.45;3.47;;;;;;;20.42;47.37;100951.63;8659474;33;20249;-73
2021/08/13 18:52:09;;;;;;;6.10;3.53;;;;;;;20.12;47.86;100957.63;8659927;33;20953;-72
2021/08/13 18:57:12;;;;;;;6.85;3.30;;;;;;;20.03;48.04;100958.66;8659250;33;21016;-72
2021/08/13 19:02:16;;;;;;;7.07;3.45;;;;;;;20.11;48.32;100969.56;8612907;33;20442;-73
2021/08/13 19:07:20;;;;;;;7.55;3.35;;;;;;;20.04;48.75;100965.81;8660675;33;20233;-73
2021/08/13 19:12:23;;;;;;;5.53;3.80;;;;;;;20.08;48.88;100966.34;8658479;33;20261;-72
2021/08/13 19:17:27;;;;;;;7.07;4.10;;;;;;;19.91;49.78;100965.47;8657920;33;20275;-72
2021/08/13 19:22:30;;;;;;;6.35;3.90;;;;;;;19.70;50.48;100970.63;8658018;33;20145;-72
2021/08/13 19:27:34;;;;;;;7.25;3.83;;;;;;;19.58;51.45;100979.13;8657663;33;20149;-72
2021/08/13 19:32:40;;;;;;;8.27;3.90;;;;;;;19.57;51.40;100996.50;8657987;33;20278;-71
2021/08/13 19:37:42;;;;;;;5.75;3.47;;;;;;;19.35;51.85;100991.66;8658099;33;20175;-71
2021/08/13 19:42:45;;;;;;;7.70;3.90;;;;;;;19.31;52.28;100990.28;8658386;33;21455;-72
2021/08/13 19:47:51;;;;;;;9.23;4.88;;;;;;;19.19;52.56;100996.03;8657257;33;20188;-72
2021/08/13 19:52:54;;;;;;;9.50;4.00;;;;;;;19.16;53.00;101001.81;8655751;33;20185;-72
2021/08/13 19:57:59;;;;;;;6.25;3.97;;;;;;;19.10;53.09;100999.78;8656852;33;20338;-71
2021/08/13 20:03:03;;;;;;;9.68;4.00;;;;;;;18.99;53.79;101009.09;8657690;33;20665;-72
2021/08/13 20:08:07;;;;;;;10.68;3.85;;;;;;;19.06;53.43;101006.56;8657312;33;20207;-72
2021/08/13 20:13:10;;;;;;;6.30;3.97;;;;;;;18.96;53.67;100995.81;8657683;33;20283;-72
2021/08/13 20:18:14;;;;;;;9.43;3.50;;;;;;;18.51;53.88;100998.78;8657141;33;20256;-72
2021/08/13 20:23:17;;;;;;;7.57;2.97;;;;;;;18.41;53.96;101000.78;8657161;33;20516;-72
2021/08/13 20:28:23;;;;;;;6.47;3.17;;;;;;;18.35;53.57;101013.16;8656827;33;20572;-72
2021/08/13 20:33:28;;;;;;;6.22;3.53;;;;;;;18.46;53.53;101012.88;8657557;33;20206;-72
2021/08/13 20:38:30;;;;;;;6.72;3.50;;;;;;;18.41;53.67;101019.81;8657345;33;20206;-72
2021/08/13 20:43:34;;;;;;;6.40;2.70;;;;;;;18.53;53.00;101024.81;8657980;33;20257;-72
2021/08/13 20:48:38;;;;;;;5.32;2.53;;;;;;;18.52;52.98;101017.69;8657045;33;20242;-72
2021/08/13 20:53:41;;;;;;;7.10;3.30;;;;;;;18.54;52.59;101012.06;8656880;33;20677;-72
2021/08/13 20:58:44;;;;;;;5.40;2.97;;;;;;;18.31;53.02;101020.78;8655985;33;20657;-72
2021/08/13 21:03:48;;;;;;;7.53;3.10;;;;;;;18.19;53.13;101016.63;8656504;33;20196;-72
2021/08/13 21:08:51;;;;;;;5.25;2.97;;;;;;;18.25;53.28;101026.84;8655551;33;20254;-72
2021/08/13 21:13:54;;;;;;;6.03;2.85;;;;;;;18.31;53.16;101025.34;8656296;33;20345;-72
2021/08/13 21:18:58;;;;;;;5.40;2.80;;;;;;;18.30;52.91;101019.06;8656336;33;20258;-72
2021/08/13 21:24:02;;;;;;;6.38;2.80;;;;;;;17.86;54.35;101019.03;8655153;33;20305;-72
2021/08/13 21:29:05;;;;;;;5.57;2.80;;;;;;;17.85;54.51;101024.63;8655933;33;20301;-72
2021/08/13 21:34:09;;;;;;;8.18;2.30;;;;;;;17.88;53.99;101013.44;8655287;33;20177;-72
2021/08/13 21:39:12;;;;;;;5.10;2.33;;;;;;;17.65;54.68;101021.22;8660574;33;20196;-72
2021/08/13 21:44:15;;;;;;;8.30;2.80;;;;;;;17.58;54.80;101023.72;8660337;33;20234;-72
2021/08/13 21:49:19;;;;;;;5.15;2.50;;;;;;;17.54;55.17;101022.31;8660489;33;20188;-72
2021/08/13 21:54:22;;;;;;;4.13;2.58;;;;;;;17.81;54.57;101009.66;8659709;33;20945;-71
2021/08/13 21:59:25;;;;;;;5.90;2.50;;;;;;;17.83;54.29;101007.66;8660650;33;21065;-72
2021/08/13 22:04:29;;;;;;;5.00;2.35;;;;;;;17.81;55.06;101009.66;8659839;33;20419;-72
2021/08/13 22:09:33;;;;;;;9.68;2.60;;;;;;;17.74;55.41;101008.56;8659443;33;20254;-72
2021/08/13 22:14:36;;;;;;;3.70;2.65;;;;;;;17.68;55.49;101007.31;8659109;33;20275;-72
2021/08/13 22:19:40;;;;;;;6.90;2.83;;;;;;;17.72;55.03;101013.28;8659623;33;20194;-72
2021/08/13 22:24:43;;;;;;;3.97;2.10;;;;;;;17.28;55.47;101016.78;8659353;33;20222;-72
2021/08/13 22:29:46;;;;;;;7.93;2.95;;;;;;;17.20;55.84;101019.41;8659266;33;20160;-72
2021/08/13 22:34:51;;;;;;;5.75;2.50;;;;;;;17.12;56.07;101012.00;8659271;33;20151;-70
2021/08/13 22:39:54;;;;;;;6.63;2.58;;;;;;;17.08;56.36;101010.56;8647105;33;20180;-72
2021/08/13 22:44:57;;;;;;;5.68;2.72;;;;;;;17.15;56.35;101008.16;8658308;33;20204;-72
2021/08/13 22:50:02;;;;;;;6.97;3.17;;;;;;;17.11;56.46;101009.41;8658797;33;20904;-71
2021/08/13 22:55:08;;;;;;;7.55;2.50;;;;;;;17.04;56.46;101025.47;8658495;33;21446;-73
2021/08/13 23:00:12;;;;;;;5.30;2.45;;;;;;;16.95;56.74;101016.38;8658531;33;20238;-73
2021/08/13 23:05:17;;;;;;;4.68;2.58;;;;;;;16.91;57.04;101014.94;8658085;33;20668;-73
2021/08/13 23:10:20;;;;;;;4.38;2.67;;;;;;;16.81;56.96;101017.72;8658362;33;20263;-72
2021/08/13 23:15:23;;;;;;;7.07;3.00;;;;;;;16.67;57.37;101012.75;8657246;33;20181;-72
2021/08/13 23:20:27;;;;;;;8.45;2.75;;;;;;;16.50;58.32;101016.25;8658348;33;20215;-72
2021/08/13 23:25:30;;;;;;;5.90;2.70;;;;;;;16.72;58.41;101018.59;8657548;33;20470;-72